Terminal Aerodrome Forecast
Issued by NWS Sterling, VA

Current Version | Previous Version | Graphics & Text | Print | Product List | Glossary On
Versions: 1 2 3 4 5 6 7 8 9 10 11 12 13 14 15 16 17 18 19 20 21
000
FTUS41 KLWX 260906 AAA
TAFIAD
TAF AMD
KIAD 260906Z 2609/2712 29005KT P6SM FEW150
     FM261200 29008KT P6SM SCT150
     FM262000 21009KT P6SM SCT070
     FM270300 30005KT P6SM BKN250=

USA.gov is the U.S. government's official web portal to all federal, state and local government web resources and services.